Aviation Digital Data Service (ADDS)

Output produced by METARs form (1724 UTC 26 August 2016)
found at http://www.aviationweather.gov/adds/metars/
 
KSEG 261653Z AUTO 32010G14KT 10SM CLR 31/22 A3007 RMK AO2 SLP179 T03060222
KSEG 261553Z AUTO 30010KT 10SM FEW037 SCT049 BKN055 29/22 A3008 RMK AO2 SLP183 T02940217
KSEG 261453Z AUTO VRB05KT 10SM SCT032 BKN040 BKN048 29/22 A3008 RMK AO2 SLP182 T02890222 52007
KSEG 261353Z AUTO 33004KT 10SM FEW027 BKN034 28/23 A3007 RMK AO2 SLP180 T02830228
KSEG 261253Z AUTO VRB03KT 10SM FEW055 27/24 A3007 RMK AO2 SLP178 T02670239
KSEG 261153Z AUTO 00000KT 5SM BR CLR 24/23 A3006 RMK AO2 SLP175 T02390233 10239 20200 53011
KSEG 261135Z AUTO 00000KT 3SM BR CLR 22/22 A3006 RMK AO2 T02220222
KSEG 261125Z AUTO 00000KT 2SM BR CLR 22/22 A3006 RMK AO2 T02170217
KSEG 261101Z AUTO 00000KT 1 1/2SM BR CLR 21/21 A3006 RMK AO2 T02060206
KSEG 261053Z AUTO 00000KT 2SM BR CLR 21/21 A3005 RMK AO2 SLP173 T02060206
KSEG 261045Z AUTO 31003KT 2SM BR CLR 21/21 A3005 RMK AO2 T02060206
KSEG 261006Z AUTO 00000KT 3SM BR CLR 21/21 A3003 RMK AO2 T02060206
KSEG 260953Z AUTO 00000KT 2 1/2SM BR CLR 21/21 A3003 RMK AO2 SLP164 T02060206
KSEG 260941Z AUTO 00000KT 2 1/2SM BR CLR 21/21 A3002 RMK AO2 T02060206
KSEG 260853Z AUTO 00000KT 5SM BR CLR 22/22 A3001 RMK AO2 SLP158 T02170217 53008
KSEG 260753Z AUTO 00000KT 6SM BR FEW070 OVC100 23/23 A2999 RMK AO2 LTG DSNT S SLP151 T02280228
KSEG 260653Z AUTO 09003KT 6SM BR FEW050 OVC085 23/23 A2999 RMK AO2 SLP151 T02280228
KSEG 260553Z AUTO 00000KT 9SM FEW043 24/23 A2998 RMK AO2 RAE03 SLP149 P0000 60000 T02390233 10250 20222 55006
KSEG 260453Z AUTO 00000KT 6SM -RA BR BKN042 23/23 A2998 RMK AO2 RAB48 SLP149 P0000 T02330233 403060189
KSEG 260353Z AUTO 21003KT 7SM CLR 22/22 A2999 RMK AO2 SLP150 T02220222
KSEG 260253Z AUTO 00000KT 7SM CLR 22/22 A3000 RMK AO2 SLP155 T02220222 53003
KSEG 260153Z AUTO 00000KT 7SM CLR 23/23 A2999 RMK AO2 SLP152 T02280228
KSEG 260053Z AUTO 31003KT 7SM CLR 24/24 A3000 RMK AO2 SLP154 T02390239
KSEG 252353Z AUTO 00000KT 10SM CLR 25/24 A2999 RMK AO2 SLP152 T02500244 10306 20250 55003
KSEG 252253Z AUTO VRB03KT 10SM CLR 29/23 A2999 RMK AO2 SLP150 T02890233
KSEG 252153Z AUTO VRB04KT 10SM CLR 30/23 A2999 RMK AO2 SLP150 T03000233
KSEG 252053Z AUTO 17005KT 10SM SCT055 29/23 A3000 RMK AO2 SLP155 T02940233 56011
KSEG 251953Z AUTO 16008KT 10SM FEW040 FEW050 29/23 A3001 RMK AO2 SLP158 T02890233
KSEG 251853Z AUTO 16008KT 10SM FEW034 BKN060 29/23 A3002 RMK AO2 SLP161 T02890233
KSEG 251753Z AUTO 17006KT 10SM BKN034 OVC041 27/22 A3003 RMK AO2 SLP166 T02670222 10272 20211 56013
KSEG 251653Z AUTO 16009KT 10SM BKN037 OVC050 27/22 A3004 RMK AO2 SLP169 T02670217
KSEG 251553Z AUTO 17007KT 10SM FEW025 27/22 A3006 RMK AO2 SLP174 T02670217
KSEG 251453Z AUTO 18007KT 10SM FEW060 25/21 A3007 RMK AO2 SLP179 T02500206 58002
KSEG 251353Z AUTO 20005KT 10SM BKN042 BKN050 OVC065 23/20 A3007 RMK AO2 SLP180 T02280200
KSEG 251253Z AUTO 19005KT 10SM CLR 23/19 A3007 RMK AO2 SLP180 T02330194
KSEG 251153Z AUTO 00000KT 10SM FEW060 21/19 A3008 RMK AO2 SLP181 T02110189 10211 20189 58003
KSEG 251053Z AUTO 18003KT 10SM CLR 20/19 A3009 RMK AO2 SLP185 T02000189
KSEG 250953Z AUTO 20003KT 10SM CLR 19/19 A3009 RMK AO2 SLP185 T01890189
KSEG 250853Z AUTO 00000KT 10SM CLR 19/19 A3008 RMK AO2 SLP184 T01890189 58012
KSEG 250753Z AUTO 28003KT 10SM CLR 20/19 A3010 RMK AO2 SLP190 T02000194
KSEG 250653Z AUTO 00000KT 10SM CLR 19/19 A3011 RMK AO2 SLP191 T01940194
KSEG 250553Z AUTO 00000KT 10SM CLR 19/19 A3012 RMK AO2 SLP196 T01940194 10250 20194 56011